Rowan M Mcallister — WDD9667 — position and weather

sailwx.info

Track history (hours):
 
Tides and Currents Weather Stations Pressure Air Temp Water Temp Dewpoint Dewpoint Depression Visibility Wind Speed Wind Dir Waves Ship Positions

Rowan M Mcallister

Owner: McAllister Towing & Transportation Company Inc., Staten Island, NY. More information available from US FCC via Universal Licensing System and Coast Guard Vessel Documentation Center.

Last reported at 2017-Oct-13 23:14 UTC. Time now 2017-Oct-18 20:25 UTC.
Position N 36°51' W 075°54'.

Length 40 m; draft 4.8 m.

Type: Tug. MMSI: 367314640.

Date/timePositionNaut miles runAvg speedWind from/ knotsBaromVisibWave heightAir tempDewpointWater temp
2017-Oct-13 23:14N 36°51' W 075°54'210.6
2017-Oct-13 23:01N 36°53' W 075°56'510.2
2017-Oct-13 22:30N 36°56' W 076°01'16 7.2
2017-Oct-13 20:17N 36°53' W 076°20'2 8.3
2017-Oct-13 20:00N 36°51' W 076°18'1 2.2
2017-Oct-13 19:30N 36°50' W 076°17'0 0.0
2017-Oct-13 19:00N 36°50' W 076°17'0 0.0
2017-Oct-13 18:30N 36°50' W 076°17'0 0.0
2017-Oct-13 18:00N 36°50' W 076°17'0 0.0
2017-Oct-13 17:30N 36°50' W 076°17'0 0.0
2017-Oct-13 17:00N 36°50' W 076°17'0 0.0
2017-Oct-13 16:30N 36°50' W 076°17'0 0.0
2017-Oct-13 16:00N 36°50' W 076°17'0 0.0
2017-Oct-13 15:30N 36°50' W 076°17'0 0.0
2017-Oct-13 15:00N 36°50' W 076°17'0 0.0
2017-Oct-13 14:30N 36°50' W 076°17'0 0.0
2017-Oct-13 14:00N 36°50' W 076°17'0 0.0
2017-Oct-13 13:30N 36°50' W 076°17'0 0.0
2017-Oct-13 13:00N 36°50' W 076°17'0 0.0
2017-Oct-13 12:30N 36°50' W 076°17'0 0.2
2017-Oct-13 12:00N 36°50' W 076°18'0 0.3
2017-Oct-13 11:30N 36°50' W 076°17'0 0.0
2017-Oct-13 11:00N 36°50' W 076°17'0 0.0
2017-Oct-13 10:30N 36°50' W 076°17'0 0.0
2017-Oct-13 10:00N 36°50' W 076°17'0 0.0
2017-Oct-13 09:30N 36°50' W 076°17'0 0.0
2017-Oct-13 09:00N 36°50' W 076°17'0 0.0
2017-Oct-13 08:29N 36°50' W 076°17'0 0.0
2017-Oct-13 08:00N 36°50' W 076°17'0 0.0
2017-Oct-13 07:30N 36°50' W 076°17'0 0.0
2017-Oct-13 07:00N 36°50' W 076°17'0 0.0
2017-Oct-13 06:30N 36°50' W 076°17'0 0.0
2017-Oct-13 06:00N 36°50' W 076°17'0 0.0
2017-Oct-13 05:30N 36°50' W 076°17'0 0.0
2017-Oct-13 05:00N 36°50' W 076°17'0 0.0
2017-Oct-13 04:30N 36°50' W 076°17'0 0.0
2017-Oct-13 04:00N 36°50' W 076°17'0 0.0
2017-Oct-13 03:30N 36°50' W 076°17'0 0.0
2017-Oct-13 03:00N 36°50' W 076°17'0 0.0
2017-Oct-13 02:30N 36°50' W 076°17'0 0.0
2017-Oct-13 02:00N 36°50' W 076°17'0 0.0
2017-Oct-13 01:30N 36°50' W 076°17'0 0.0
2017-Oct-13 01:00N 36°50' W 076°17'0 0.0
2017-Oct-13 00:30N 36°50' W 076°17'0 0.0
2017-Oct-13 00:00N 36°50' W 076°17'0 0.0
2017-Oct-12 23:30N 36°50' W 076°17'0 0.0
2017-Oct-12 23:00N 36°50' W 076°17'0 0.0
2017-Oct-12 22:30N 36°50' W 076°17'0 0.0
2017-Oct-12 22:00N 36°50' W 076°17'0 0.0
2017-Oct-12 21:30N 36°50' W 076°17'0 0.0
2017-Oct-12 21:00N 36°50' W 076°17'0 0.0
2017-Oct-12 20:30N 36°50' W 076°17'0 0.0
2017-Oct-12 20:00N 36°50' W 076°17'0 0.0
2017-Oct-12 19:30N 36°50' W 076°17'0 0.0
2017-Oct-12 19:00N 36°50' W 076°17'0 0.0
2017-Oct-12 18:30N 36°50' W 076°17'0 0.0
2017-Oct-12 18:00N 36°50' W 076°17'0 0.0
2017-Oct-12 17:30N 36°50' W 076°17'0 0.0
2017-Oct-12 17:00N 36°50' W 076°17'0 0.0
2017-Oct-12 16:30N 36°50' W 076°17'0 0.0
2017-Oct-12 16:00N 36°50' W 076°17'0 0.0
2017-Oct-12 15:30N 36°50' W 076°17'0 0.0
2017-Oct-12 15:00N 36°50' W 076°17'0 0.0
2017-Oct-12 14:30N 36°50' W 076°17'0 0.0
2017-Oct-12 14:00N 36°50' W 076°17'2 3.2
2017-Oct-12 13:30N 36°51' W 076°19'0 0.8
2017-Oct-12 13:00N 36°51' W 076°18'1 2.4
2017-Oct-12 12:30N 36°50' W 076°17'0 0.0
2017-Oct-12 12:00N 36°50' W 076°17'0 0.0
2017-Oct-12 11:31N 36°50' W 076°17'0 0.0
2017-Oct-12 11:00N 36°50' W 076°17'0 0.0
2017-Oct-12 10:30N 36°50' W 076°17'0 0.0
2017-Oct-12 10:00N 36°50' W 076°17'0 0.0
2017-Oct-12 09:28N 36°50' W 076°17'0 0.0
2017-Oct-12 08:59N 36°50' W 076°17'0 0.0
2017-Oct-12 08:30N 36°50' W 076°17'0 0.0
2017-Oct-12 07:56N 36°50' W 076°17'0 0.0
2017-Oct-12 07:29N 36°50' W 076°17'0 0.0
2017-Oct-12 06:59N 36°50' W 076°17'0 0.0
2017-Oct-12 06:29N 36°50' W 076°17'0 0.0
2017-Oct-11 23:07N 36°50' W 076°17'0 0.0
2017-Oct-11 22:58N 36°50' W 076°17'2 3.0
2017-Oct-11 22:24N 36°48' W 076°17'1 1.8
2017-Oct-11 21:59N 36°48' W 076°18'0 0.0
2017-Oct-11 21:30N 36°48' W 076°18'0 0.0
2017-Oct-11 20:57N 36°48' W 076°18'0 0.0
2017-Oct-11 20:28N 36°48' W 076°18'1 1.1
2017-Oct-11 19:57N 36°48' W 076°17'2 4.3
2017-Oct-11 19:30N 36°50' W 076°17'0 0.0
2017-Oct-11 18:59N 36°50' W 076°17'0 0.0
2017-Oct-11 18:27N 36°50' W 076°17'0 0.0
2017-Oct-11 17:54N 36°50' W 076°17'0 0.0
2017-Oct-11 17:24N 36°50' W 076°17'3 5.7
2017-Oct-11 16:57N 36°52' W 076°20'5 0.3
2017-Oct-10 23:57N 36°48' W 076°18'0 0.0
2017-Oct-10 23:24N 36°48' W 076°18'0 0.0
2017-Oct-10 23:00N 36°48' W 076°18'0 0.0
2017-Oct-10 22:29N 36°48' W 076°18'0 0.0
2017-Oct-10 21:58N 36°48' W 076°18'0 0.0
2017-Oct-10 21:30N 36°48' W 076°18'0 0.0
2017-Oct-10 20:55N 36°48' W 076°18'0 0.4
2017-Oct-10 20:30N 36°48' W 076°18'2 4.5
2017-Oct-10 19:59N 36°50' W 076°17'0 0.0
2017-Oct-10 19:30N 36°50' W 076°17'0 0.0
2017-Oct-10 18:59N 36°50' W 076°17'0 0.0
2017-Oct-10 18:30N 36°50' W 076°17'0 0.0
2017-Oct-10 17:59N 36°50' W 076°17'0 0.0
2017-Oct-10 17:25N 36°50' W 076°17'0 0.0
2017-Oct-10 16:54N 36°50' W 076°17'0 0.0
2017-Oct-10 16:29N 36°50' W 076°17'0 0.0
2017-Oct-10 15:54N 36°50' W 076°17'0 0.0
2017-Oct-10 15:29N 36°50' W 076°17'0 0.0
2017-Oct-10 15:00N 36°50' W 076°17'0 0.0
2017-Oct-10 13:57N 36°50' W 076°17'0 0.0
2017-Oct-10 13:28N 36°50' W 076°17'0 0.0
2017-Oct-10 12:55N 36°50' W 076°17'0 0.0
2017-Oct-10 12:20N 36°50' W 076°17'0 0.0
2017-Oct-10 11:46N 36°50' W 076°17'0 0.0
2017-Oct-10 11:18N 36°50' W 076°17'0 0.0
2017-Oct-10 11:00N 36°50' W 076°17'0 0.0
2017-Oct-10 10:17N 36°50' W 076°17'0 0.0
2017-Oct-10 09:57N 36°50' W 076°17'0 0.0
2017-Oct-10 09:23N 36°50' W 076°17'0 0.0
2017-Oct-10 08:21N 36°50' W 076°17'0 0.0
2017-Oct-10 07:56N 36°50' W 076°17'0 0.0
2017-Oct-10 07:27N 36°50' W 076°17'0 0.0
2017-Oct-10 06:53N 36°50' W 076°17'0 0.0
2017-Oct-10 06:30N 36°50' W 076°17'0 0.0
2017-Oct-09 06:16N 36°50' W 076°17'0 0.0
2017-Oct-09 04:36N 36°50' W 076°17'0 0.0
2017-Oct-09 04:27N 36°50' W 076°17'0 0.0
2017-Oct-09 03:49N 36°50' W 076°17'0 0.0
2017-Oct-09 03:30N 36°50' W 076°17'0 0.0
2017-Oct-09 02:44N 36°50' W 076°17'0 0.0
2017-Oct-09 02:30N 36°50' W 076°17'0 0.0
2017-Oct-09 01:56N 36°50' W 076°17'0 0.0
2017-Oct-09 01:30N 36°50' W 076°17'0 0.0
2017-Oct-09 01:00N 36°50' W 076°17'0 0.0
2017-Oct-09 00:26N 36°50' W 076°17'0 0.0
2017-Oct-09 00:00N 36°50' W 076°17'0 0.0
2017-Oct-08 23:29N 36°50' W 076°17'0 0.0
2017-Oct-08 22:59N 36°50' W 076°17'0 0.0
2017-Oct-08 22:30N 36°50' W 076°17'0 0.0
2017-Oct-08 21:58N 36°50' W 076°17'0 0.0
2017-Oct-08 21:24N 36°50' W 076°17'0 0.0
2017-Oct-08 21:00N 36°50' W 076°17'0 0.0
2017-Oct-08 20:28N 36°50' W 076°17'0 0.0
2017-Oct-08 19:59N 36°50' W 076°17'0 0.0
2017-Oct-08 19:28N 36°50' W 076°17'0 0.0
2017-Oct-08 19:00N 36°50' W 076°17'0 0.0
2017-Oct-08 18:30N 36°50' W 076°17'0 0.2
2017-Oct-08 18:00N 36°50' W 076°18'5 8.3
2017-Oct-08 17:26N 36°54' W 076°20'14 8.3
2017-Oct-08 15:42N 36°58' W 076°03'311.5
2017-Oct-08 15:26N 36°59' W 075°59'62 9.9
2017-Oct-08 09:10N 37°48' W 075°13'210.2
2017-Oct-08 09:00N 37°50' W 075°12'510.1
2017-Oct-08 08:29N 37°54' W 075°08'510.0
2017-Oct-08 08:00N 37°58' W 075°05'510.2
2017-Oct-08 07:29N 38°04' W 075°04'510.1
2017-Oct-08 06:58N 38°09' W 075°02'510.1
2017-Oct-08 06:27N 38°14' W 075°01'510.1
2017-Oct-08 05:59N 38°18' W 074°59'510.1
2017-Oct-08 05:30N 38°23' W 074°58'5 9.8
2017-Oct-08 04:59N 38°27' W 074°55'5 9.9
2017-Oct-08 04:30N 38°32' W 074°51'5 9.9
2017-Oct-08 04:00N 38°36' W 074°48'5 9.8
2017-Oct-08 03:28N 38°40' W 074°44'510.0
2017-Oct-08 02:57N 38°44' W 074°41'410.0
2017-Oct-08 02:31N 38°48' W 074°38'510.0
2017-Oct-08 02:01N 38°53' W 074°35'510.1
2017-Oct-08 01:30N 38°57' W 074°31'510.0
2017-Oct-08 00:59N 39°02' W 074°28'510.1
2017-Oct-08 00:31N 39°06' W 074°26'710.1
2017-Oct-07 23:50N 39°12' W 074°21'410.1
2017-Oct-07 23:27N 39°15' W 074°19'19 9.8
2017-Oct-07 21:31N 39°32' W 074°08'2 9.7
2017-Oct-07 21:20N 39°34' W 074°07'3 9.7
2017-Oct-07 21:00N 39°37' W 074°05'5 9.7
2017-Oct-07 20:30N 39°41' W 074°02'5 9.6
2017-Oct-07 20:00N 39°45' W 073°59'5 9.5
2017-Oct-07 19:27N 39°50' W 073°59'5 9.8
2017-Oct-07 18:59N 39°55' W 073°59'5 9.8
2017-Oct-07 18:31N 39°60' W 073°58'5 9.8
2017-Oct-07 18:00N 40°05' W 073°58'5 9.7
2017-Oct-07 17:29N 40°09' W 073°57'21 9.5
2017-Oct-07 15:16N 40°31' W 073°58'310.5
2017-Oct-07 14:59N 40°32' W 074°02'5 9.7
2017-Oct-07 14:30N 40°37' W 074°03'4 8.0
2017-Oct-07 13:59N 40°39' W 074°08'1 2.7
2017-Oct-07 13:30N 40°38' W 074°10'3 5.5
2017-Oct-07 13:00N 40°36' W 074°12'3 6.8
2017-Oct-07 12:30N 40°33' W 074°14'0 0.0
2017-Oct-07 12:00N 40°33' W 074°14'0 0.0
2017-Oct-07 11:30N 40°33' W 074°14'0 0.0
2017-Oct-07 11:00N 40°33' W 074°14'3 5.3
2017-Oct-07 10:22N 40°36' W 074°12'3 7.9
2017-Oct-07 10:00N 40°39' W 074°10'0 0.9
2017-Oct-07 09:30N 40°38' W 074°10'0 0.0
2017-Oct-07 09:00N 40°38' W 074°10'0 0.0
2017-Oct-07 08:30N 40°38' W 074°10'0 0.0
2017-Oct-07 08:00N 40°38' W 074°10'0 0.0
2017-Oct-07 07:30N 40°38' W 074°10'0 0.0
2017-Oct-07 07:00N 40°38' W 074°10'0 0.0
2017-Oct-07 06:30N 40°38' W 074°10'0 0.0
2017-Oct-07 06:00N 40°38' W 074°10'0 0.0
2017-Oct-07 05:30N 40°38' W 074°10'0 0.0
2017-Oct-07 05:00N 40°38' W 074°10'0 0.0
2017-Oct-07 04:30N 40°38' W 074°10'0 0.0
2017-Oct-07 04:00N 40°38' W 074°10'0 0.0
2017-Oct-07 03:30N 40°38' W 074°10'0 0.0
2017-Oct-07 03:00N 40°38' W 074°10'0 0.0
2017-Oct-07 02:30N 40°38' W 074°10'0 0.0
2017-Oct-07 02:00N 40°38' W 074°10'0 0.0
2017-Oct-07 01:29N 40°38' W 074°10'0 0.0
2017-Oct-07 01:00N 40°38' W 074°10'0 0.0
2017-Oct-07 00:30N 40°38' W 074°10'0 0.0
2017-Oct-06 23:56N 40°38' W 074°10'0 0.0
2017-Oct-06 23:29N 40°38' W 074°10'0 0.0
2017-Oct-06 23:00N 40°38' W 074°10'0 0.0
2017-Oct-06 22:30N 40°38' W 074°10'0 0.0
2017-Oct-06 22:00N 40°38' W 074°10'0 0.0
2017-Oct-06 21:30N 40°38' W 074°10'0 0.0
2017-Oct-06 21:00N 40°38' W 074°10'0 0.0
2017-Oct-06 20:30N 40°38' W 074°10'0 0.0
2017-Oct-06 20:00N 40°38' W 074°10'0 0.0
2017-Oct-06 19:30N 40°38' W 074°10'3 5.1
2017-Oct-06 19:00N 40°39' W 074°07'5 9.5
2017-Oct-06 18:30N 40°41' W 074°01'510.9
2017-Oct-06 18:00N 40°46' W 073°57'510.2
2017-Oct-06 17:30N 40°48' W 073°51'6 9.6
2017-Oct-06 16:54N 40°51' W 073°45'4410.6
2017-Oct-06 12:46N 41°06' W 072°50'311.1
2017-Oct-06 12:30N 41°06' W 072°46'611.2
2017-Oct-06 12:00N 41°08' W 072°39'611.2
2017-Oct-06 11:30N 41°10' W 072°32'611.3
2017-Oct-06 11:00N 41°11' W 072°25'510.8
2017-Oct-06 10:30N 41°12' W 072°18'5 9.7
2017-Oct-06 10:00N 41°13' W 072°12'4 8.9
2017-Oct-06 09:30N 41°14' W 072°06'5 9.4
2017-Oct-06 09:00N 41°15' W 071°59'5 8.8
2017-Oct-06 08:22N 41°15' W 071°52'3 9.1
2017-Oct-06 08:00N 41°16' W 071°48'82 8.4
2017-Oct-05 22:15N 42°14' W 070°31'210.0
2017-Oct-05 22:00N 42°17' W 070°31'510.0
2017-Oct-05 21:30N 42°22' W 070°32'510.4
2017-Oct-05 21:00N 42°27' W 070°32'510.3
2017-Oct-05 20:30N 42°32' W 070°32'510.2
2017-Oct-05 20:00N 42°37' W 070°33'510.7
2017-Oct-05 19:30N 42°43' W 070°33'510.8
2017-Oct-05 19:00N 42°48' W 070°33'510.6
2017-Oct-05 18:30N 42°53' W 070°33'510.4
2017-Oct-05 18:00N 42°58' W 070°32'  
Track history (hours):
 
Tides and Currents Weather Stations Pressure Air Temp Water Temp Dewpoint Dewpoint Depression Visibility Wind Speed Wind Dir Waves Ship Positions

Rowan M Mcallister

Owner: McAllister Towing & Transportation Company Inc., Staten Island, NY. More information available from US FCC via Universal Licensing System and Coast Guard Vessel Documentation Center.

Last reported at 2017-Oct-13 23:14 UTC. Time now 2017-Oct-18 20:25 UTC.
Position N 36°51' W 075°54'.

Length 40 m; draft 4.8 m.

Type: Tug. MMSI: 367314640.

Date/timePositionNaut miles runAvg speedWind from/ knotsBaromVisibWave heightAir tempDewpointWater temp
2017-Oct-13 23:14N 36°51' W 075°54'210.6
2017-Oct-13 23:01N 36°53' W 075°56'510.2
2017-Oct-13 22:30N 36°56' W 076°01'16 7.2
2017-Oct-13 20:17N 36°53' W 076°20'2 8.3
2017-Oct-13 20:00N 36°51' W 076°18'1 2.2
2017-Oct-13 19:30N 36°50' W 076°17'0 0.0
2017-Oct-13 19:00N 36°50' W 076°17'0 0.0
2017-Oct-13 18:30N 36°50' W 076°17'0 0.0
2017-Oct-13 18:00N 36°50' W 076°17'0 0.0
2017-Oct-13 17:30N 36°50' W 076°17'0 0.0
2017-Oct-13 17:00N 36°50' W 076°17'0 0.0
2017-Oct-13 16:30N 36°50' W 076°17'0 0.0
2017-Oct-13 16:00N 36°50' W 076°17'0 0.0
2017-Oct-13 15:30N 36°50' W 076°17'0 0.0
2017-Oct-13 15:00N 36°50' W 076°17'0 0.0
2017-Oct-13 14:30N 36°50' W 076°17'0 0.0
2017-Oct-13 14:00N 36°50' W 076°17'0 0.0
2017-Oct-13 13:30N 36°50' W 076°17'0 0.0
2017-Oct-13 13:00N 36°50' W 076°17'0 0.0
2017-Oct-13 12:30N 36°50' W 076°17'0 0.2
2017-Oct-13 12:00N 36°50' W 076°18'0 0.3
2017-Oct-13 11:30N 36°50' W 076°17'0 0.0
2017-Oct-13 11:00N 36°50' W 076°17'0 0.0
2017-Oct-13 10:30N 36°50' W 076°17'0 0.0
2017-Oct-13 10:00N 36°50' W 076°17'0 0.0
2017-Oct-13 09:30N 36°50' W 076°17'0 0.0
2017-Oct-13 09:00N 36°50' W 076°17'0 0.0
2017-Oct-13 08:29N 36°50' W 076°17'0 0.0
2017-Oct-13 08:00N 36°50' W 076°17'0 0.0
2017-Oct-13 07:30N 36°50' W 076°17'0 0.0
2017-Oct-13 07:00N 36°50' W 076°17'0 0.0
2017-Oct-13 06:30N 36°50' W 076°17'0 0.0
2017-Oct-13 06:00N 36°50' W 076°17'0 0.0
2017-Oct-13 05:30N 36°50' W 076°17'0 0.0
2017-Oct-13 05:00N 36°50' W 076°17'0 0.0
2017-Oct-13 04:30N 36°50' W 076°17'0 0.0
2017-Oct-13 04:00N 36°50' W 076°17'0 0.0
2017-Oct-13 03:30N 36°50' W 076°17'0 0.0
2017-Oct-13 03:00N 36°50' W 076°17'0 0.0
2017-Oct-13 02:30N 36°50' W 076°17'0 0.0
2017-Oct-13 02:00N 36°50' W 076°17'0 0.0
2017-Oct-13 01:30N 36°50' W 076°17'0 0.0
2017-Oct-13 01:00N 36°50' W 076°17'0 0.0
2017-Oct-13 00:30N 36°50' W 076°17'0 0.0
2017-Oct-13 00:00N 36°50' W 076°17'0 0.0
2017-Oct-12 23:30N 36°50' W 076°17'0 0.0
2017-Oct-12 23:00N 36°50' W 076°17'0 0.0
2017-Oct-12 22:30N 36°50' W 076°17'0 0.0
2017-Oct-12 22:00N 36°50' W 076°17'0 0.0
2017-Oct-12 21:30N 36°50' W 076°17'0 0.0
2017-Oct-12 21:00N 36°50' W 076°17'0 0.0
2017-Oct-12 20:30N 36°50' W 076°17'0 0.0
2017-Oct-12 20:00N 36°50' W 076°17'0 0.0
2017-Oct-12 19:30N 36°50' W 076°17'0 0.0
2017-Oct-12 19:00N 36°50' W 076°17'0 0.0
2017-Oct-12 18:30N 36°50' W 076°17'0 0.0
2017-Oct-12 18:00N 36°50' W 076°17'0 0.0
2017-Oct-12 17:30N 36°50' W 076°17'0 0.0
2017-Oct-12 17:00N 36°50' W 076°17'0 0.0
2017-Oct-12 16:30N 36°50' W 076°17'0 0.0
2017-Oct-12 16:00N 36°50' W 076°17'0 0.0
2017-Oct-12 15:30N 36°50' W 076°17'0 0.0
2017-Oct-12 15:00N 36°50' W 076°17'0 0.0
2017-Oct-12 14:30N 36°50' W 076°17'0 0.0
2017-Oct-12 14:00N 36°50' W 076°17'2 3.2
2017-Oct-12 13:30N 36°51' W 076°19'0 0.8
2017-Oct-12 13:00N 36°51' W 076°18'1 2.4
2017-Oct-12 12:30N 36°50' W 076°17'0 0.0
2017-Oct-12 12:00N 36°50' W 076°17'0 0.0
2017-Oct-12 11:31N 36°50' W 076°17'0 0.0
2017-Oct-12 11:00N 36°50' W 076°17'0 0.0
2017-Oct-12 10:30N 36°50' W 076°17'0 0.0
2017-Oct-12 10:00N 36°50' W 076°17'0 0.0
2017-Oct-12 09:28N 36°50' W 076°17'0 0.0
2017-Oct-12 08:59N 36°50' W 076°17'0 0.0
2017-Oct-12 08:30N 36°50' W 076°17'0 0.0
2017-Oct-12 07:56N 36°50' W 076°17'0 0.0
2017-Oct-12 07:29N 36°50' W 076°17'0 0.0
2017-Oct-12 06:59N 36°50' W 076°17'0 0.0
2017-Oct-12 06:29N 36°50' W 076°17'0 0.0
2017-Oct-11 23:07N 36°50' W 076°17'0 0.0
2017-Oct-11 22:58N 36°50' W 076°17'2 3.0
2017-Oct-11 22:24N 36°48' W 076°17'1 1.8
2017-Oct-11 21:59N 36°48' W 076°18'0 0.0
2017-Oct-11 21:30N 36°48' W 076°18'0 0.0
2017-Oct-11 20:57N 36°48' W 076°18'0 0.0
2017-Oct-11 20:28N 36°48' W 076°18'1 1.1
2017-Oct-11 19:57N 36°48' W 076°17'2 4.3
2017-Oct-11 19:30N 36°50' W 076°17'0 0.0
2017-Oct-11 18:59N 36°50' W 076°17'0 0.0
2017-Oct-11 18:27N 36°50' W 076°17'0 0.0
2017-Oct-11 17:54N 36°50' W 076°17'0 0.0
2017-Oct-11 17:24N 36°50' W 076°17'3 5.7
2017-Oct-11 16:57N 36°52' W 076°20'5 0.3
2017-Oct-10 23:57N 36°48' W 076°18'0 0.0
2017-Oct-10 23:24N 36°48' W 076°18'0 0.0
2017-Oct-10 23:00N 36°48' W 076°18'0 0.0
2017-Oct-10 22:29N 36°48' W 076°18'0 0.0
2017-Oct-10 21:58N 36°48' W 076°18'0 0.0
2017-Oct-10 21:30N 36°48' W 076°18'0 0.0
2017-Oct-10 20:55N 36°48' W 076°18'0 0.4
2017-Oct-10 20:30N 36°48' W 076°18'2 4.5
2017-Oct-10 19:59N 36°50' W 076°17'0 0.0
2017-Oct-10 19:30N 36°50' W 076°17'0 0.0
2017-Oct-10 18:59N 36°50' W 076°17'0 0.0
2017-Oct-10 18:30N 36°50' W 076°17'0 0.0
2017-Oct-10 17:59N 36°50' W 076°17'0 0.0
2017-Oct-10 17:25N 36°50' W 076°17'0 0.0
2017-Oct-10 16:54N 36°50' W 076°17'0 0.0
2017-Oct-10 16:29N 36°50' W 076°17'0 0.0
2017-Oct-10 15:54N 36°50' W 076°17'0 0.0
2017-Oct-10 15:29N 36°50' W 076°17'0 0.0
2017-Oct-10 15:00N 36°50' W 076°17'0 0.0
2017-Oct-10 13:57N 36°50' W 076°17'0 0.0
2017-Oct-10 13:28N 36°50' W 076°17'0 0.0
2017-Oct-10 12:55N 36°50' W 076°17'0 0.0
2017-Oct-10 12:20N 36°50' W 076°17'0 0.0
2017-Oct-10 11:46N 36°50' W 076°17'0 0.0
2017-Oct-10 11:18N 36°50' W 076°17'0 0.0
2017-Oct-10 11:00N 36°50' W 076°17'0 0.0
2017-Oct-10 10:17N 36°50' W 076°17'0 0.0
2017-Oct-10 09:57N 36°50' W 076°17'0 0.0
2017-Oct-10 09:23N 36°50' W 076°17'0 0.0
2017-Oct-10 08:21N 36°50' W 076°17'0 0.0
2017-Oct-10 07:56N 36°50' W 076°17'0 0.0
2017-Oct-10 07:27N 36°50' W 076°17'0 0.0
2017-Oct-10 06:53N 36°50' W 076°17'0 0.0
2017-Oct-10 06:30N 36°50' W 076°17'0 0.0
2017-Oct-09 06:16N 36°50' W 076°17'0 0.0
2017-Oct-09 04:36N 36°50' W 076°17'0 0.0
2017-Oct-09 04:27N 36°50' W 076°17'0 0.0
2017-Oct-09 03:49N 36°50' W 076°17'0 0.0
2017-Oct-09 03:30N 36°50' W 076°17'0 0.0
2017-Oct-09 02:44N 36°50' W 076°17'0 0.0
2017-Oct-09 02:30N 36°50' W 076°17'0 0.0
2017-Oct-09 01:56N 36°50' W 076°17'0 0.0
2017-Oct-09 01:30N 36°50' W 076°17'0 0.0
2017-Oct-09 01:00N 36°50' W 076°17'0 0.0
2017-Oct-09 00:26N 36°50' W 076°17'0 0.0
2017-Oct-09 00:00N 36°50' W 076°17'0 0.0
2017-Oct-08 23:29N 36°50' W 076°17'0 0.0
2017-Oct-08 22:59N 36°50' W 076°17'0 0.0
2017-Oct-08 22:30N 36°50' W 076°17'0 0.0
2017-Oct-08 21:58N 36°50' W 076°17'0 0.0
2017-Oct-08 21:24N 36°50' W 076°17'0 0.0
2017-Oct-08 21:00N 36°50' W 076°17'0 0.0
2017-Oct-08 20:28N 36°50' W 076°17'0 0.0
2017-Oct-08 19:59N 36°50' W 076°17'0 0.0
2017-Oct-08 19:28N 36°50' W 076°17'0 0.0
2017-Oct-08 19:00N 36°50' W 076°17'0 0.0
2017-Oct-08 18:30N 36°50' W 076°17'0 0.2
2017-Oct-08 18:00N 36°50' W 076°18'5 8.3
2017-Oct-08 17:26N 36°54' W 076°20'14 8.3
2017-Oct-08 15:42N 36°58' W 076°03'311.5
2017-Oct-08 15:26N 36°59' W 075°59'62 9.9
2017-Oct-08 09:10N 37°48' W 075°13'210.2
2017-Oct-08 09:00N 37°50' W 075°12'510.1
2017-Oct-08 08:29N 37°54' W 075°08'510.0
2017-Oct-08 08:00N 37°58' W 075°05'510.2
2017-Oct-08 07:29N 38°04' W 075°04'510.1
2017-Oct-08 06:58N 38°09' W 075°02'510.1
2017-Oct-08 06:27N 38°14' W 075°01'510.1
2017-Oct-08 05:59N 38°18' W 074°59'510.1
2017-Oct-08 05:30N 38°23' W 074°58'5 9.8
2017-Oct-08 04:59N 38°27' W 074°55'5 9.9
2017-Oct-08 04:30N 38°32' W 074°51'5 9.9
2017-Oct-08 04:00N 38°36' W 074°48'5 9.8
2017-Oct-08 03:28N 38°40' W 074°44'510.0
2017-Oct-08 02:57N 38°44' W 074°41'410.0
2017-Oct-08 02:31N 38°48' W 074°38'510.0
2017-Oct-08 02:01N 38°53' W 074°35'510.1
2017-Oct-08 01:30N 38°57' W 074°31'510.0
2017-Oct-08 00:59N 39°02' W 074°28'510.1
2017-Oct-08 00:31N 39°06' W 074°26'710.1
2017-Oct-07 23:50N 39°12' W 074°21'410.1
2017-Oct-07 23:27N 39°15' W 074°19'19 9.8
2017-Oct-07 21:31N 39°32' W 074°08'2 9.7
2017-Oct-07 21:20N 39°34' W 074°07'3 9.7
2017-Oct-07 21:00N 39°37' W 074°05'5 9.7
2017-Oct-07 20:30N 39°41' W 074°02'5 9.6
2017-Oct-07 20:00N 39°45' W 073°59'5 9.5
2017-Oct-07 19:27N 39°50' W 073°59'5 9.8
2017-Oct-07 18:59N 39°55' W 073°59'5 9.8
2017-Oct-07 18:31N 39°60' W 073°58'5 9.8
2017-Oct-07 18:00N 40°05' W 073°58'5 9.7
2017-Oct-07 17:29N 40°09' W 073°57'21 9.5
2017-Oct-07 15:16N 40°31' W 073°58'310.5
2017-Oct-07 14:59N 40°32' W 074°02'5 9.7
2017-Oct-07 14:30N 40°37' W 074°03'4 8.0
2017-Oct-07 13:59N 40°39' W 074°08'1 2.7
2017-Oct-07 13:30N 40°38' W 074°10'3 5.5
2017-Oct-07 13:00N 40°36' W 074°12'3 6.8
2017-Oct-07 12:30N 40°33' W 074°14'0 0.0
2017-Oct-07 12:00N 40°33' W 074°14'0 0.0
2017-Oct-07 11:30N 40°33' W 074°14'0 0.0
2017-Oct-07 11:00N 40°33' W 074°14'3 5.3
2017-Oct-07 10:22N 40°36' W 074°12'3 7.9
2017-Oct-07 10:00N 40°39' W 074°10'0 0.9
2017-Oct-07 09:30N 40°38' W 074°10'0 0.0
2017-Oct-07 09:00N 40°38' W 074°10'0 0.0
2017-Oct-07 08:30N 40°38' W 074°10'0 0.0
2017-Oct-07 08:00N 40°38' W 074°10'0 0.0
2017-Oct-07 07:30N 40°38' W 074°10'0 0.0
2017-Oct-07 07:00N 40°38' W 074°10'0 0.0
2017-Oct-07 06:30N 40°38' W 074°10'0 0.0
2017-Oct-07 06:00N 40°38' W 074°10'0 0.0
2017-Oct-07 05:30N 40°38' W 074°10'0 0.0
2017-Oct-07 05:00N 40°38' W 074°10'0 0.0
2017-Oct-07 04:30N 40°38' W 074°10'0 0.0
2017-Oct-07 04:00N 40°38' W 074°10'0 0.0
2017-Oct-07 03:30N 40°38' W 074°10'0 0.0
2017-Oct-07 03:00N 40°38' W 074°10'0 0.0
2017-Oct-07 02:30N 40°38' W 074°10'0 0.0
2017-Oct-07 02:00N 40°38' W 074°10'0 0.0
2017-Oct-07 01:29N 40°38' W 074°10'0 0.0
2017-Oct-07 01:00N 40°38' W 074°10'0 0.0
2017-Oct-07 00:30N 40°38' W 074°10'0 0.0
2017-Oct-06 23:56N 40°38' W 074°10'0 0.0
2017-Oct-06 23:29N 40°38' W 074°10'0 0.0
2017-Oct-06 23:00N 40°38' W 074°10'0 0.0
2017-Oct-06 22:30N 40°38' W 074°10'0 0.0
2017-Oct-06 22:00N 40°38' W 074°10'0 0.0
2017-Oct-06 21:30N 40°38' W 074°10'0 0.0
2017-Oct-06 21:00N 40°38' W 074°10'0 0.0
2017-Oct-06 20:30N 40°38' W 074°10'0 0.0
2017-Oct-06 20:00N 40°38' W 074°10'0 0.0
2017-Oct-06 19:30N 40°38' W 074°10'3 5.1
2017-Oct-06 19:00N 40°39' W 074°07'5 9.5
2017-Oct-06 18:30N 40°41' W 074°01'510.9
2017-Oct-06 18:00N 40°46' W 073°57'510.2
2017-Oct-06 17:30N 40°48' W 073°51'6 9.6
2017-Oct-06 16:54N 40°51' W 073°45'4410.6
2017-Oct-06 12:46N 41°06' W 072°50'311.1
2017-Oct-06 12:30N 41°06' W 072°46'611.2
2017-Oct-06 12:00N 41°08' W 072°39'611.2
2017-Oct-06 11:30N 41°10' W 072°32'611.3
2017-Oct-06 11:00N 41°11' W 072°25'510.8
2017-Oct-06 10:30N 41°12' W 072°18'5 9.7
2017-Oct-06 10:00N 41°13' W 072°12'4 8.9
2017-Oct-06 09:30N 41°14' W 072°06'5 9.4
2017-Oct-06 09:00N 41°15' W 071°59'5 8.8
2017-Oct-06 08:22N 41°15' W 071°52'3 9.1
2017-Oct-06 08:00N 41°16' W 071°48'82 8.4
2017-Oct-05 22:15N 42°14' W 070°31'210.0
2017-Oct-05 22:00N 42°17' W 070°31'510.0
2017-Oct-05 21:30N 42°22' W 070°32'510.4
2017-Oct-05 21:00N 42°27' W 070°32'510.3
2017-Oct-05 20:30N 42°32' W 070°32'510.2
2017-Oct-05 20:00N 42°37' W 070°33'510.7
2017-Oct-05 19:30N 42°43' W 070°33'510.8
2017-Oct-05 19:00N 42°48' W 070°33'510.6
2017-Oct-05 18:30N 42°53' W 070°33'510.4
2017-Oct-05 18:00N 42°58' W 070°32'  

Dump ship's entire track history